sensor_id;sensor_type;location;lat;lon;timestamp;P1;durP1;ratioP1;P2;durP2;ratioP2
15356;SDS011;7778;48.792;9.260;2024-02-14T00:02:25;5.38;;;3.35;;
15356;SDS011;7778;48.792;9.260;2024-02-14T00:05:10;8.65;;;3.38;;
15356;SDS011;7778;48.792;9.260;2024-02-14T00:07:56;5.90;;;3.25;;
15356;SDS011;7778;48.792;9.260;2024-02-14T00:10:43;4.57;;;2.85;;
15356;SDS011;7778;48.792;9.260;2024-02-14T00:13:29;5.03;;;3.03;;
15356;SDS011;7778;48.792;9.260;2024-02-14T00:16:17;6.18;;;3.80;;
15356;SDS011;7778;48.792;9.260;2024-02-14T00:19:03;7.78;;;4.00;;
15356;SDS011;7778;48.792;9.260;2024-02-14T00:21:48;13.32;;;3.40;;
15356;SDS011;7778;48.792;9.260;2024-02-14T00:24:34;5.40;;;3.00;;
15356;SDS011;7778;48.792;9.260;2024-02-14T00:27:21;7.78;;;2.97;;
15356;SDS011;7778;48.792;9.260;2024-02-14T00:30:08;6.70;;;3.33;;
15356;SDS011;7778;48.792;9.260;2024-02-14T00:32:54;5.47;;;3.08;;
15356;SDS011;7778;48.792;9.260;2024-02-14T00:35:40;4.40;;;3.00;;
15356;SDS011;7778;48.792;9.260;2024-02-14T00:38:26;8.52;;;3.00;;
15356;SDS011;7778;48.792;9.260;2024-02-14T00:41:12;5.00;;;2.97;;
15356;SDS011;7778;48.792;9.260;2024-02-14T00:43:58;7.60;;;3.33;;
15356;SDS011;7778;48.792;9.260;2024-02-14T00:46:44;4.07;;;2.78;;
15356;SDS011;7778;48.792;9.260;2024-02-14T00:49:30;4.10;;;2.33;;
15356;SDS011;7778;48.792;9.260;2024-02-14T00:52:19;4.47;;;2.50;;
15356;SDS011;7778;48.792;9.260;2024-02-14T00:55:06;5.45;;;1.95;;
15356;SDS011;7778;48.792;9.260;2024-02-14T00:57:53;3.92;;;2.40;;
15356;SDS011;7778;48.792;9.260;2024-02-14T01:00:40;7.15;;;2.75;;
15356;SDS011;7778;48.792;9.260;2024-02-14T01:03:26;5.82;;;2.55;;
15356;SDS011;7778;48.792;9.260;2024-02-14T01:06:12;6.55;;;2.50;;
15356;SDS011;7778;48.792;9.260;2024-02-14T01:08:59;4.25;;;2.33;;
15356;SDS011;7778;48.792;9.260;2024-02-14T01:11:45;4.13;;;1.58;;
15356;SDS011;7778;48.792;9.260;2024-02-14T01:14:32;3.70;;;2.47;;
15356;SDS011;7778;48.792;9.260;2024-02-14T01:17:19;4.13;;;2.22;;
15356;SDS011;7778;48.792;9.260;2024-02-14T01:20:05;4.55;;;2.50;;
15356;SDS011;7778;48.792;9.260;2024-02-14T01:22:52;3.05;;;2.28;;
15356;SDS011;7778;48.792;9.260;2024-02-14T01:25:38;7.90;;;2.30;;
15356;SDS011;7778;48.792;9.260;2024-02-14T01:28:23;3.05;;;2.22;;
15356;SDS011;7778;48.792;9.260;2024-02-14T01:31:09;2.88;;;1.50;;
15356;SDS011;7778;48.792;9.260;2024-02-14T01:33:57;4.25;;;2.45;;
15356;SDS011;7778;48.792;9.260;2024-02-14T01:36:45;2.95;;;1.67;;
15356;SDS011;7778;48.792;9.260;2024-02-14T01:39:33;2.67;;;1.90;;
15356;SDS011;7778;48.792;9.260;2024-02-14T01:42:18;5.05;;;2.42;;
15356;SDS011;7778;48.792;9.260;2024-02-14T01:45:04;3.33;;;2.22;;
15356;SDS011;7778;48.792;9.260;2024-02-14T01:47:52;6.38;;;2.13;;
15356;SDS011;7778;48.792;9.260;2024-02-14T01:50:40;4.00;;;2.00;;
15356;SDS011;7778;48.792;9.260;2024-02-14T01:53:26;2.90;;;1.45;;
15356;SDS011;7778;48.792;9.260;2024-02-14T01:56:14;7.13;;;2.13;;
15356;SDS011;7778;48.792;9.260;2024-02-14T01:59:00;3.90;;;1.90;;
15356;SDS011;7778;48.792;9.260;2024-02-14T02:01:46;4.53;;;2.13;;
15356;SDS011;7778;48.792;9.260;2024-02-14T02:04:32;4.10;;;1.60;;
15356;SDS011;7778;48.792;9.260;2024-02-14T02:07:19;2.22;;;1.80;;
15356;SDS011;7778;48.792;9.260;2024-02-14T02:10:05;7.03;;;2.03;;
15356;SDS011;7778;48.792;9.260;2024-02-14T02:12:57;6.18;;;1.95;;
15356;SDS011;7778;48.792;9.260;2024-02-14T02:15:44;4.70;;;2.05;;
15356;SDS011;7778;48.792;9.260;2024-02-14T02:18:30;5.60;;;2.47;;
15356;SDS011;7778;48.792;9.260;2024-02-14T02:21:15;3.83;;;1.98;;
15356;SDS011;7778;48.792;9.260;2024-02-14T02:24:08;11.40;;;2.83;;
15356;SDS011;7778;48.792;9.260;2024-02-14T02:26:54;3.83;;;1.83;;
15356;SDS011;7778;48.792;9.260;2024-02-14T02:29:40;3.63;;;1.70;;
15356;SDS011;7778;48.792;9.260;2024-02-14T02:32:26;5.07;;;2.10;;
15356;SDS011;7778;48.792;9.260;2024-02-14T02:35:11;8.90;;;2.35;;
15356;SDS011;7778;48.792;9.260;2024-02-14T02:37:57;2.67;;;1.80;;
15356;SDS011;7778;48.792;9.260;2024-02-14T02:40:44;4.45;;;1.95;;
15356;SDS011;7778;48.792;9.260;2024-02-14T02:43:30;4.97;;;2.60;;
15356;SDS011;7778;48.792;9.260;2024-02-14T02:46:16;3.85;;;2.05;;
15356;SDS011;7778;48.792;9.260;2024-02-14T02:49:01;4.72;;;2.15;;
15356;SDS011;7778;48.792;9.260;2024-02-14T02:51:47;6.28;;;2.28;;
15356;SDS011;7778;48.792;9.260;2024-02-14T02:54:33;3.25;;;2.15;;
15356;SDS011;7778;48.792;9.260;2024-02-14T02:57:20;5.30;;;2.20;;
15356;SDS011;7778;48.792;9.260;2024-02-14T03:00:06;3.80;;;1.63;;
15356;SDS011;7778;48.792;9.260;2024-02-14T03:02:52;4.68;;;1.80;;
15356;SDS011;7778;48.792;9.260;2024-02-14T03:05:38;3.38;;;1.83;;
15356;SDS011;7778;48.792;9.260;2024-02-14T03:08:24;5.25;;;2.28;;
15356;SDS011;7778;48.792;9.260;2024-02-14T03:11:10;4.28;;;2.75;;
15356;SDS011;7778;48.792;9.260;2024-02-14T03:13:57;4.35;;;2.35;;
15356;SDS011;7778;48.792;9.260;2024-02-14T03:16:43;6.78;;;2.42;;
15356;SDS011;7778;48.792;9.260;2024-02-14T03:19:28;2.67;;;1.77;;
15356;SDS011;7778;48.792;9.260;2024-02-14T03:22:14;4.20;;;2.00;;
15356;SDS011;7778;48.792;9.260;2024-02-14T03:25:02;3.35;;;1.90;;
15356;SDS011;7778;48.792;9.260;2024-02-14T03:27:49;4.43;;;2.72;;
15356;SDS011;7778;48.792;9.260;2024-02-14T03:30:38;6.25;;;2.95;;
15356;SDS011;7778;48.792;9.260;2024-02-14T03:33:24;5.55;;;3.30;;
15356;SDS011;7778;48.792;9.260;2024-02-14T03:36:10;10.70;;;3.80;;
15356;SDS011;7778;48.792;9.260;2024-02-14T03:38:56;6.38;;;3.15;;
15356;SDS011;7778;48.792;9.260;2024-02-14T03:41:42;9.38;;;3.90;;
15356;SDS011;7778;48.792;9.260;2024-02-14T03:44:27;5.68;;;2.90;;
15356;SDS011;7778;48.792;9.260;2024-02-14T03:47:14;8.55;;;3.55;;
15356;SDS011;7778;48.792;9.260;2024-02-14T03:50:00;8.13;;;3.28;;
15356;SDS011;7778;48.792;9.260;2024-02-14T03:52:48;4.60;;;2.33;;
15356;SDS011;7778;48.792;9.260;2024-02-14T03:55:33;8.40;;;2.25;;
15356;SDS011;7778;48.792;9.260;2024-02-14T03:58:20;6.68;;;1.98;;
15356;SDS011;7778;48.792;9.260;2024-02-14T04:01:06;4.28;;;1.92;;
15356;SDS011;7778;48.792;9.260;2024-02-14T04:03:53;6.47;;;2.00;;
15356;SDS011;7778;48.792;9.260;2024-02-14T04:06:39;3.08;;;1.33;;
15356;SDS011;7778;48.792;9.260;2024-02-14T04:09:26;4.28;;;1.95;;
15356;SDS011;7778;48.792;9.260;2024-02-14T04:12:11;9.43;;;1.83;;
15356;SDS011;7778;48.792;9.260;2024-02-14T04:14:57;4.63;;;2.13;;
15356;SDS011;7778;48.792;9.260;2024-02-14T04:17:43;5.65;;;2.38;;
15356;SDS011;7778;48.792;9.260;2024-02-14T04:20:29;7.18;;;2.67;;
15356;SDS011;7778;48.792;9.260;2024-02-14T04:23:15;3.38;;;1.50;;
15356;SDS011;7778;48.792;9.260;2024-02-14T04:26:01;4.35;;;2.17;;
15356;SDS011;7778;48.792;9.260;2024-02-14T04:28:46;3.30;;;1.55;;
15356;SDS011;7778;48.792;9.260;2024-02-14T04:31:32;5.57;;;2.22;;
15356;SDS011;7778;48.792;9.260;2024-02-14T04:34:18;4.03;;;1.95;;
15356;SDS011;7778;48.792;9.260;2024-02-14T04:37:06;3.53;;;1.60;;
15356;SDS011;7778;48.792;9.260;2024-02-14T04:39:54;7.75;;;1.85;;
15356;SDS011;7778;48.792;9.260;2024-02-14T04:42:39;3.40;;;1.95;;
15356;SDS011;7778;48.792;9.260;2024-02-14T04:45:25;5.03;;;1.77;;
15356;SDS011;7778;48.792;9.260;2024-02-14T04:48:11;6.18;;;2.17;;
15356;SDS011;7778;48.792;9.260;2024-02-14T04:50:56;3.85;;;2.20;;
15356;SDS011;7778;48.792;9.260;2024-02-14T04:53:43;1.67;;;1.20;;
15356;SDS011;7778;48.792;9.260;2024-02-14T04:56:29;3.20;;;1.92;;
15356;SDS011;7778;48.792;9.260;2024-02-14T04:59:14;5.35;;;2.58;;
15356;SDS011;7778;48.792;9.260;2024-02-14T05:02:00;4.50;;;2.00;;
15356;SDS011;7778;48.792;9.260;2024-02-14T05:04:46;3.38;;;1.85;;
15356;SDS011;7778;48.792;9.260;2024-02-14T05:07:32;3.65;;;1.70;;
15356;SDS011;7778;48.792;9.260;2024-02-14T05:10:19;2.95;;;1.88;;
15356;SDS011;7778;48.792;9.260;2024-02-14T05:13:04;4.63;;;2.22;;
15356;SDS011;7778;48.792;9.260;2024-02-14T05:15:50;2.40;;;1.73;;
15356;SDS011;7778;48.792;9.260;2024-02-14T05:18:36;5.35;;;1.55;;
15356;SDS011;7778;48.792;9.260;2024-02-14T05:21:22;4.00;;;1.38;;
15356;SDS011;7778;48.792;9.260;2024-02-14T05:24:07;6.95;;;1.67;;
15356;SDS011;7778;48.792;9.260;2024-02-14T05:26:54;2.45;;;1.70;;
15356;SDS011;7778;48.792;9.260;2024-02-14T05:29:40;4.80;;;2.13;;
15356;SDS011;7778;48.792;9.260;2024-02-14T05:32:26;4.40;;;1.95;;
15356;SDS011;7778;48.792;9.260;2024-02-14T05:35:12;4.40;;;1.63;;
15356;SDS011;7778;48.792;9.260;2024-02-14T05:37:57;4.45;;;2.22;;
15356;SDS011;7778;48.792;9.260;2024-02-14T05:40:43;3.10;;;1.95;;
15356;SDS011;7778;48.792;9.260;2024-02-14T05:43:30;4.20;;;2.20;;
15356;SDS011;7778;48.792;9.260;2024-02-14T05:46:16;2.65;;;2.08;;
15356;SDS011;7778;48.792;9.260;2024-02-14T05:49:04;4.70;;;2.42;;
15356;SDS011;7778;48.792;9.260;2024-02-14T05:51:50;2.05;;;1.83;;
15356;SDS011;7778;48.792;9.260;2024-02-14T05:54:37;4.43;;;1.88;;
15356;SDS011;7778;48.792;9.260;2024-02-14T05:57:22;4.65;;;2.25;;
15356;SDS011;7778;48.792;9.260;2024-02-14T06:00:10;4.75;;;1.92;;
15356;SDS011;7778;48.792;9.260;2024-02-14T06:02:57;2.65;;;1.77;;
15356;SDS011;7778;48.792;9.260;2024-02-14T06:05:42;8.45;;;1.92;;
15356;SDS011;7778;48.792;9.260;2024-02-14T06:08:28;3.90;;;1.90;;
15356;SDS011;7778;48.792;9.260;2024-02-14T06:11:13;2.13;;;1.80;;
15356;SDS011;7778;48.792;9.260;2024-02-14T06:14:00;4.35;;;2.08;;
15356;SDS011;7778;48.792;9.260;2024-02-14T06:16:47;2.83;;;2.20;;
15356;SDS011;7778;48.792;9.260;2024-02-14T06:19:33;4.90;;;2.38;;
15356;SDS011;7778;48.792;9.260;2024-02-14T06:22:19;4.28;;;2.28;;
15356;SDS011;7778;48.792;9.260;2024-02-14T06:25:05;1.90;;;1.65;;
15356;SDS011;7778;48.792;9.260;2024-02-14T06:27:51;4.65;;;1.67;;
15356;SDS011;7778;48.792;9.260;2024-02-14T06:30:38;3.47;;;1.55;;
15356;SDS011;7778;48.792;9.260;2024-02-14T06:33:25;3.58;;;2.08;;
15356;SDS011;7778;48.792;9.260;2024-02-14T06:36:10;3.92;;;1.60;;
15356;SDS011;7778;48.792;9.260;2024-02-14T06:38:56;3.55;;;1.75;;
15356;SDS011;7778;48.792;9.260;2024-02-14T06:41:41;3.17;;;1.42;;
15356;SDS011;7778;48.792;9.260;2024-02-14T06:44:29;7.28;;;2.22;;
15356;SDS011;7778;48.792;9.260;2024-02-14T06:47:14;3.22;;;1.90;;
15356;SDS011;7778;48.792;9.260;2024-02-14T06:50:01;4.68;;;2.25;;
15356;SDS011;7778;48.792;9.260;2024-02-14T06:52:47;3.92;;;1.92;;
15356;SDS011;7778;48.792;9.260;2024-02-14T06:55:32;3.42;;;1.67;;
15356;SDS011;7778;48.792;9.260;2024-02-14T06:58:18;2.45;;;1.80;;
15356;SDS011;7778;48.792;9.260;2024-02-14T07:01:04;4.88;;;2.30;;
15356;SDS011;7778;48.792;9.260;2024-02-14T07:03:49;5.97;;;2.33;;
15356;SDS011;7778;48.792;9.260;2024-02-14T07:06:37;3.20;;;2.13;;
15356;SDS011;7778;48.792;9.260;2024-02-14T07:09:22;2.33;;;1.65;;
15356;SDS011;7778;48.792;9.260;2024-02-14T07:12:08;2.15;;;1.63;;
15356;SDS011;7778;48.792;9.260;2024-02-14T07:14:54;3.40;;;1.80;;
15356;SDS011;7778;48.792;9.260;2024-02-14T07:17:40;4.32;;;1.98;;
15356;SDS011;7778;48.792;9.260;2024-02-14T07:20:26;5.70;;;1.92;;
15356;SDS011;7778;48.792;9.260;2024-02-14T07:23:13;7.35;;;2.15;;
15356;SDS011;7778;48.792;9.260;2024-02-14T07:25:59;5.03;;;2.05;;
15356;SDS011;7778;48.792;9.260;2024-02-14T07:28:45;3.20;;;1.95;;
15356;SDS011;7778;48.792;9.260;2024-02-14T07:31:31;5.55;;;2.08;;
15356;SDS011;7778;48.792;9.260;2024-02-14T07:34:17;4.43;;;1.65;;
15356;SDS011;7778;48.792;9.260;2024-02-14T07:37:03;5.65;;;2.33;;
15356;SDS011;7778;48.792;9.260;2024-02-14T07:39:51;3.53;;;1.92;;
15356;SDS011;7778;48.792;9.260;2024-02-14T07:42:37;3.38;;;1.83;;
15356;SDS011;7778;48.792;9.260;2024-02-14T07:45:22;5.07;;;1.98;;
15356;SDS011;7778;48.792;9.260;2024-02-14T07:48:08;4.20;;;1.83;;
15356;SDS011;7778;48.792;9.260;2024-02-14T07:50:54;3.20;;;1.77;;
15356;SDS011;7778;48.792;9.260;2024-02-14T07:53:41;3.40;;;2.03;;
15356;SDS011;7778;48.792;9.260;2024-02-14T07:56:28;4.88;;;2.25;;
15356;SDS011;7778;48.792;9.260;2024-02-14T07:59:13;4.72;;;2.20;;
15356;SDS011;7778;48.792;9.260;2024-02-14T08:01:59;4.35;;;2.10;;
15356;SDS011;7778;48.792;9.260;2024-02-14T08:04:46;5.22;;;1.73;;
15356;SDS011;7778;48.792;9.260;2024-02-14T08:07:31;2.30;;;1.50;;
15356;SDS011;7778;48.792;9.260;2024-02-14T08:10:17;6.45;;;2.15;;
15356;SDS011;7778;48.792;9.260;2024-02-14T08:13:05;8.27;;;2.17;;
15356;SDS011;7778;48.792;9.260;2024-02-14T08:15:50;3.13;;;1.63;;
15356;SDS011;7778;48.792;9.260;2024-02-14T08:18:36;11.70;;;2.97;;
15356;SDS011;7778;48.792;9.260;2024-02-14T08:21:23;4.47;;;2.70;;
15356;SDS011;7778;48.792;9.260;2024-02-14T08:24:09;1.92;;;1.40;;
15356;SDS011;7778;48.792;9.260;2024-02-14T08:26:54;3.03;;;1.60;;
15356;SDS011;7778;48.792;9.260;2024-02-14T08:29:41;1.98;;;1.40;;
15356;SDS011;7778;48.792;9.260;2024-02-14T08:32:27;2.90;;;1.70;;
15356;SDS011;7778;48.792;9.260;2024-02-14T08:35:13;11.38;;;1.98;;
15356;SDS011;7778;48.792;9.260;2024-02-14T08:37:59;4.28;;;1.75;;
15356;SDS011;7778;48.792;9.260;2024-02-14T08:40:44;2.35;;;1.38;;
15356;SDS011;7778;48.792;9.260;2024-02-14T08:43:30;3.20;;;1.55;;
15356;SDS011;7778;48.792;9.260;2024-02-14T08:46:19;4.47;;;1.92;;
15356;SDS011;7778;48.792;9.260;2024-02-14T08:49:04;7.70;;;2.33;;
15356;SDS011;7778;48.792;9.260;2024-02-14T08:51:52;3.67;;;1.92;;
15356;SDS011;7778;48.792;9.260;2024-02-14T08:54:38;2.53;;;1.75;;
15356;SDS011;7778;48.792;9.260;2024-02-14T08:57:23;3.45;;;1.52;;
15356;SDS011;7778;48.792;9.260;2024-02-14T09:00:10;3.60;;;1.83;;
15356;SDS011;7778;48.792;9.260;2024-02-14T09:02:59;2.53;;;1.80;;
15356;SDS011;7778;48.792;9.260;2024-02-14T09:05:45;4.68;;;1.75;;
15356;SDS011;7778;48.792;9.260;2024-02-14T09:08:31;3.25;;;2.13;;
15356;SDS011;7778;48.792;9.260;2024-02-14T09:11:17;3.30;;;1.83;;
15356;SDS011;7778;48.792;9.260;2024-02-14T09:14:03;3.03;;;1.40;;
15356;SDS011;7778;48.792;9.260;2024-02-14T09:16:50;2.72;;;1.63;;
15356;SDS011;7778;48.792;9.260;2024-02-14T09:19:37;1.65;;;1.27;;
15356;SDS011;7778;48.792;9.260;2024-02-14T09:22:22;4.15;;;1.48;;
15356;SDS011;7778;48.792;9.260;2024-02-14T09:25:08;2.55;;;1.63;;
15356;SDS011;7778;48.792;9.260;2024-02-14T09:27:54;3.78;;;1.75;;
15356;SDS011;7778;48.792;9.260;2024-02-14T09:30:40;3.53;;;1.88;;
15356;SDS011;7778;48.792;9.260;2024-02-14T09:33:26;5.03;;;2.38;;
15356;SDS011;7778;48.792;9.260;2024-02-14T09:36:13;3.53;;;1.50;;
15356;SDS011;7778;48.792;9.260;2024-02-14T09:38:59;6.95;;;1.67;;
15356;SDS011;7778;48.792;9.260;2024-02-14T09:41:46;3.83;;;1.50;;
15356;SDS011;7778;48.792;9.260;2024-02-14T09:44:41;1.88;;;1.30;;
15356;SDS011;7778;48.792;9.260;2024-02-14T09:47:29;2.45;;;1.60;;
15356;SDS011;7778;48.792;9.260;2024-02-14T09:50:17;7.07;;;1.65;;
15356;SDS011;7778;48.792;9.260;2024-02-14T09:53:06;2.00;;;1.35;;
15356;SDS011;7778;48.792;9.260;2024-02-14T09:55:54;4.60;;;1.83;;
15356;SDS011;7778;48.792;9.260;2024-02-14T09:58:40;2.63;;;1.52;;
15356;SDS011;7778;48.792;9.260;2024-02-14T10:01:26;1.58;;;1.13;;
15356;SDS011;7778;48.792;9.260;2024-02-14T10:04:12;3.50;;;1.92;;
15356;SDS011;7778;48.792;9.260;2024-02-14T10:06:58;3.15;;;1.75;;
15356;SDS011;7778;48.792;9.260;2024-02-14T10:09:46;3.95;;;1.90;;
15356;SDS011;7778;48.792;9.260;2024-02-14T10:12:32;3.08;;;1.52;;
15356;SDS011;7778;48.792;9.260;2024-02-14T10:15:17;3.20;;;1.42;;
15356;SDS011;7778;48.792;9.260;2024-02-14T10:18:03;3.78;;;1.70;;
15356;SDS011;7778;48.792;9.260;2024-02-14T10:20:53;4.07;;;1.23;;
15356;SDS011;7778;48.792;9.260;2024-02-14T10:23:40;4.85;;;1.50;;
15356;SDS011;7778;48.792;9.260;2024-02-14T10:26:27;0.82;;;0.82;;
15356;SDS011;7778;48.792;9.260;2024-02-14T10:29:13;1.95;;;1.10;;
15356;SDS011;7778;48.792;9.260;2024-02-14T10:32:04;1.88;;;1.17;;
15356;SDS011;7778;48.792;9.260;2024-02-14T10:34:50;2.75;;;1.27;;
15356;SDS011;7778;48.792;9.260;2024-02-14T10:37:36;2.03;;;0.70;;
15356;SDS011;7778;48.792;9.260;2024-02-14T10:40:21;1.55;;;0.63;;
15356;SDS011;7778;48.792;9.260;2024-02-14T10:43:09;0.90;;;0.77;;
15356;SDS011;7778;48.792;9.260;2024-02-14T10:45:56;1.35;;;0.75;;
15356;SDS011;7778;48.792;9.260;2024-02-14T10:48:44;2.80;;;0.90;;
15356;SDS011;7778;48.792;9.260;2024-02-14T10:51:30;0.85;;;0.65;;
15356;SDS011;7778;48.792;9.260;2024-02-14T10:54:18;1.58;;;0.82;;
15356;SDS011;7778;48.792;9.260;2024-02-14T10:57:05;1.75;;;1.00;;
15356;SDS011;7778;48.792;9.260;2024-02-14T10:59:56;0.90;;;0.57;;
15356;SDS011;7778;48.792;9.260;2024-02-14T11:02:45;1.73;;;0.85;;
15356;SDS011;7778;48.792;9.260;2024-02-14T11:05:42;1.63;;;0.88;;
15356;SDS011;7778;48.792;9.260;2024-02-14T11:08:29;0.70;;;0.50;;
15356;SDS011;7778;48.792;9.260;2024-02-14T11:11:16;2.85;;;0.82;;
15356;SDS011;7778;48.792;9.260;2024-02-14T11:14:02;1.08;;;0.70;;
15356;SDS011;7778;48.792;9.260;2024-02-14T11:16:51;1.58;;;0.80;;
15356;SDS011;7778;48.792;9.260;2024-02-14T11:19:37;0.60;;;0.57;;
15356;SDS011;7778;48.792;9.260;2024-02-14T11:22:24;0.90;;;0.85;;
15356;SDS011;7778;48.792;9.260;2024-02-14T11:25:14;1.13;;;0.60;;
15356;SDS011;7778;48.792;9.260;2024-02-14T11:28:00;0.80;;;0.57;;
15356;SDS011;7778;48.792;9.260;2024-02-14T11:31:01;1.08;;;0.77;;
15356;SDS011;7778;48.792;9.260;2024-02-14T11:33:48;0.52;;;0.50;;
15356;SDS011;7778;48.792;9.260;2024-02-14T11:36:34;1.52;;;0.70;;
15356;SDS011;7778;48.792;9.260;2024-02-14T11:39:21;1.77;;;0.70;;
15356;SDS011;7778;48.792;9.260;2024-02-14T11:42:06;1.35;;;0.43;;
15356;SDS011;7778;48.792;9.260;2024-02-14T11:44:53;1.13;;;0.57;;
15356;SDS011;7778;48.792;9.260;2024-02-14T11:47:39;0.47;;;0.47;;
15356;SDS011;7778;48.792;9.260;2024-02-14T11:50:26;0.63;;;0.40;;
15356;SDS011;7778;48.792;9.260;2024-02-14T11:53:14;0.30;;;0.28;;
15356;SDS011;7778;48.792;9.260;2024-02-14T11:56:02;0.80;;;0.47;;
15356;SDS011;7778;48.792;9.260;2024-02-14T11:58:50;0.32;;;0.30;;
15356;SDS011;7778;48.792;9.260;2024-02-14T12:01:36;2.05;;;0.73;;
15356;SDS011;7778;48.792;9.260;2024-02-14T12:04:22;0.88;;;0.52;;
15356;SDS011;7778;48.792;9.260;2024-02-14T12:07:10;0.60;;;0.40;;
15356;SDS011;7778;48.792;9.260;2024-02-14T12:09:57;0.85;;;0.40;;
15356;SDS011;7778;48.792;9.260;2024-02-14T12:12:44;1.67;;;0.93;;
15356;SDS011;7778;48.792;9.260;2024-02-14T12:15:31;1.08;;;0.63;;
15356;SDS011;7778;48.792;9.260;2024-02-14T12:18:22;1.23;;;0.55;;
15356;SDS011;7778;48.792;9.260;2024-02-14T12:21:08;2.58;;;0.95;;
15356;SDS011;7778;48.792;9.260;2024-02-14T12:23:59;0.95;;;0.50;;
15356;SDS011;7778;48.792;9.260;2024-02-14T12:26:44;1.38;;;0.82;;
15356;SDS011;7778;48.792;9.260;2024-02-14T12:29:34;0.40;;;0.40;;
15356;SDS011;7778;48.792;9.260;2024-02-14T12:32:20;2.67;;;0.47;;
15356;SDS011;7778;48.792;9.260;2024-02-14T12:35:08;2.38;;;0.70;;
15356;SDS011;7778;48.792;9.260;2024-02-14T12:37:55;1.15;;;0.60;;
15356;SDS011;7778;48.792;9.260;2024-02-14T12:40:42;1.02;;;0.75;;
15356;SDS011;7778;48.792;9.260;2024-02-14T12:43:29;0.77;;;0.55;;
15356;SDS011;7778;48.792;9.260;2024-02-14T12:46:14;1.92;;;0.80;;
15356;SDS011;7778;48.792;9.260;2024-02-14T12:49:00;3.13;;;0.85;;
15356;SDS011;7778;48.792;9.260;2024-02-14T12:51:50;1.20;;;0.60;;
15356;SDS011;7778;48.792;9.260;2024-02-14T12:54:35;1.27;;;0.47;;
15356;SDS011;7778;48.792;9.260;2024-02-14T12:57:22;1.25;;;0.73;;
15356;SDS011;7778;48.792;9.260;2024-02-14T13:00:08;2.60;;;0.47;;
15356;SDS011;7778;48.792;9.260;2024-02-14T13:02:54;0.98;;;0.28;;
15356;SDS011;7778;48.792;9.260;2024-02-14T13:05:40;0.82;;;0.45;;
15356;SDS011;7778;48.792;9.260;2024-02-14T13:08:26;0.38;;;0.38;;
15356;SDS011;7778;48.792;9.260;2024-02-14T13:11:11;0.57;;;0.40;;
15356;SDS011;7778;48.792;9.260;2024-02-14T13:13:59;1.10;;;0.40;;
15356;SDS011;7778;48.792;9.260;2024-02-14T13:16:45;0.70;;;0.32;;
15356;SDS011;7778;48.792;9.260;2024-02-14T13:19:31;0.50;;;0.45;;
15356;SDS011;7778;48.792;9.260;2024-02-14T13:22:17;2.15;;;0.68;;
15356;SDS011;7778;48.792;9.260;2024-02-14T13:25:02;2.22;;;0.45;;
15356;SDS011;7778;48.792;9.260;2024-02-14T13:27:49;0.50;;;0.50;;
15356;SDS011;7778;48.792;9.260;2024-02-14T13:30:36;0.65;;;0.60;;
15356;SDS011;7778;48.792;9.260;2024-02-14T13:33:23;1.65;;;0.52;;
15356;SDS011;7778;48.792;9.260;2024-02-14T13:36:08;0.98;;;0.47;;
15356;SDS011;7778;48.792;9.260;2024-02-14T13:38:54;1.00;;;0.73;;
15356;SDS011;7778;48.792;9.260;2024-02-14T13:41:40;1.40;;;0.52;;
15356;SDS011;7778;48.792;9.260;2024-02-14T13:44:28;5.22;;;0.52;;
15356;SDS011;7778;48.792;9.260;2024-02-14T13:47:17;0.65;;;0.35;;
15356;SDS011;7778;48.792;9.260;2024-02-14T13:50:05;0.38;;;0.35;;
15356;SDS011;7778;48.792;9.260;2024-02-14T13:52:52;1.58;;;0.43;;
15356;SDS011;7778;48.792;9.260;2024-02-14T13:55:39;1.20;;;0.52;;
15356;SDS011;7778;48.792;9.260;2024-02-14T13:58:25;1.08;;;0.45;;
15356;SDS011;7778;48.792;9.260;2024-02-14T14:01:13;0.93;;;0.68;;
15356;SDS011;7778;48.792;9.260;2024-02-14T14:04:06;0.82;;;0.55;;
15356;SDS011;7778;48.792;9.260;2024-02-14T14:06:52;1.63;;;0.55;;
15356;SDS011;7778;48.792;9.260;2024-02-14T14:09:39;0.50;;;0.45;;
15356;SDS011;7778;48.792;9.260;2024-02-14T14:12:24;1.88;;;0.63;;
15356;SDS011;7778;48.792;9.260;2024-02-14T14:15:10;0.47;;;0.47;;
15356;SDS011;7778;48.792;9.260;2024-02-14T14:17:56;0.55;;;0.43;;
15356;SDS011;7778;48.792;9.260;2024-02-14T14:20:43;2.20;;;0.70;;
15356;SDS011;7778;48.792;9.260;2024-02-14T14:23:29;1.48;;;0.70;;
15356;SDS011;7778;48.792;9.260;2024-02-14T14:26:16;2.15;;;0.73;;
15356;SDS011;7778;48.792;9.260;2024-02-14T14:29:01;0.60;;;0.40;;
15356;SDS011;7778;48.792;9.260;2024-02-14T14:31:47;0.57;;;0.50;;
15356;SDS011;7778;48.792;9.260;2024-02-14T14:34:33;1.83;;;0.50;;
15356;SDS011;7778;48.792;9.260;2024-02-14T14:37:20;4.43;;;0.38;;
15356;SDS011;7778;48.792;9.260;2024-02-14T14:40:07;0.82;;;0.22;;
15356;SDS011;7778;48.792;9.260;2024-02-14T14:42:54;0.10;;;0.10;;
15356;SDS011;7778;48.792;9.260;2024-02-14T14:45:40;0.77;;;0.40;;
15356;SDS011;7778;48.792;9.260;2024-02-14T14:48:26;0.55;;;0.30;;
15356;SDS011;7778;48.792;9.260;2024-02-14T14:51:12;0.85;;;0.38;;
15356;SDS011;7778;48.792;9.260;2024-02-14T14:53:59;0.28;;;0.28;;
15356;SDS011;7778;48.792;9.260;2024-02-14T14:56:44;0.57;;;0.57;;
15356;SDS011;7778;48.792;9.260;2024-02-14T14:59:31;0.60;;;0.60;;
15356;SDS011;7778;48.792;9.260;2024-02-14T15:02:19;1.25;;;0.40;;
15356;SDS011;7778;48.792;9.260;2024-02-14T15:05:06;1.58;;;0.50;;
15356;SDS011;7778;48.792;9.260;2024-02-14T15:07:53;0.55;;;0.20;;
15356;SDS011;7778;48.792;9.260;2024-02-14T15:10:41;3.55;;;0.32;;
15356;SDS011;7778;48.792;9.260;2024-02-14T15:13:27;0.70;;;0.47;;
15356;SDS011;7778;48.792;9.260;2024-02-14T15:16:13;0.68;;;0.47;;
15356;SDS011;7778;48.792;9.260;2024-02-14T15:18:59;1.00;;;0.50;;
15356;SDS011;7778;48.792;9.260;2024-02-14T15:21:45;0.90;;;0.75;;
15356;SDS011;7778;48.792;9.260;2024-02-14T15:24:30;1.10;;;0.60;;
15356;SDS011;7778;48.792;9.260;2024-02-14T15:27:19;0.93;;;0.50;;
15356;SDS011;7778;48.792;9.260;2024-02-14T15:30:07;1.42;;;0.55;;
15356;SDS011;7778;48.792;9.260;2024-02-14T15:33:19;0.73;;;0.38;;
15356;SDS011;7778;48.792;9.260;2024-02-14T15:36:08;0.45;;;0.45;;
15356;SDS011;7778;48.792;9.260;2024-02-14T15:38:55;0.55;;;0.30;;
15356;SDS011;7778;48.792;9.260;2024-02-14T15:41:41;1.27;;;0.70;;
15356;SDS011;7778;48.792;9.260;2024-02-14T15:44:28;2.45;;;0.40;;
15356;SDS011;7778;48.792;9.260;2024-02-14T15:47:13;1.23;;;0.55;;
15356;SDS011;7778;48.792;9.260;2024-02-14T15:49:59;0.85;;;0.52;;
15356;SDS011;7778;48.792;9.260;2024-02-14T15:52:44;1.45;;;0.70;;
15356;SDS011;7778;48.792;9.260;2024-02-14T15:55:30;0.65;;;0.50;;
15356;SDS011;7778;48.792;9.260;2024-02-14T15:58:15;0.57;;;0.38;;
15356;SDS011;7778;48.792;9.260;2024-02-14T16:01:02;0.70;;;0.40;;
15356;SDS011;7778;48.792;9.260;2024-02-14T16:03:50;2.83;;;0.60;;
15356;SDS011;7778;48.792;9.260;2024-02-14T16:06:37;1.05;;;0.50;;
15356;SDS011;7778;48.792;9.260;2024-02-14T16:09:23;2.08;;;0.88;;
15356;SDS011;7778;48.792;9.260;2024-02-14T16:12:10;0.60;;;0.52;;
15356;SDS011;7778;48.792;9.260;2024-02-14T16:14:56;1.92;;;0.43;;
15356;SDS011;7778;48.792;9.260;2024-02-14T16:17:43;2.10;;;0.85;;
15356;SDS011;7778;48.792;9.260;2024-02-14T16:20:29;1.48;;;1.00;;
15356;SDS011;7778;48.792;9.260;2024-02-14T16:23:14;3.58;;;0.90;;
15356;SDS011;7778;48.792;9.260;2024-02-14T16:26:00;2.50;;;0.90;;
15356;SDS011;7778;48.792;9.260;2024-02-14T16:28:46;1.20;;;0.77;;
15356;SDS011;7778;48.792;9.260;2024-02-14T16:31:31;2.63;;;1.35;;
15356;SDS011;7778;48.792;9.260;2024-02-14T16:34:18;2.80;;;1.27;;
15356;SDS011;7778;48.792;9.260;2024-02-14T16:37:04;2.22;;;0.70;;
15356;SDS011;7778;48.792;9.260;2024-02-14T16:39:50;1.52;;;0.90;;
15356;SDS011;7778;48.792;9.260;2024-02-14T16:42:37;1.75;;;0.90;;
15356;SDS011;7778;48.792;9.260;2024-02-14T16:45:23;1.17;;;0.80;;
15356;SDS011;7778;48.792;9.260;2024-02-14T16:48:09;1.65;;;0.70;;
15356;SDS011;7778;48.792;9.260;2024-02-14T16:50:55;1.95;;;1.10;;
15356;SDS011;7778;48.792;9.260;2024-02-14T16:53:41;1.58;;;1.08;;
15356;SDS011;7778;48.792;9.260;2024-02-14T16:56:27;1.20;;;0.80;;
15356;SDS011;7778;48.792;9.260;2024-02-14T16:59:16;0.88;;;0.88;;